createdAt,value
2018-09-13T00:00:24.459Z,32.42
2018-09-13T00:02:57.883Z,32.85
2018-09-13T00:05:31.264Z,33.80
2018-09-13T00:08:04.696Z,32.40
2018-09-13T00:10:38.116Z,32.50
2018-09-13T00:13:11.520Z,32.93
2018-09-13T00:15:44.903Z,32.67
2018-09-13T00:18:18.267Z,32.63
2018-09-13T00:20:51.875Z,32.95
2018-09-13T00:23:25.247Z,32.17
2018-09-13T00:25:58.639Z,33.15
2018-09-13T00:28:32.008Z,32.75
2018-09-13T00:31:05.435Z,32.13
2018-09-13T00:33:38.800Z,32.35
2018-09-13T00:36:12.250Z,32.63
2018-09-13T00:38:45.651Z,32.25
2018-09-13T00:41:19.072Z,32.48
2018-09-13T00:43:52.467Z,32.38
2018-09-13T00:46:25.867Z,32.08
2018-09-13T00:48:59.353Z,32.85
2018-09-13T00:51:32.767Z,32.42
2018-09-13T00:54:06.162Z,32.53
2018-09-13T00:56:39.567Z,32.75
2018-09-13T00:59:12.964Z,32.67
2018-09-13T01:01:46.454Z,32.98
2018-09-13T01:04:19.836Z,32.78
2018-09-13T01:06:53.231Z,32.53
2018-09-13T01:09:26.621Z,32.80
2018-09-13T01:12:00.042Z,33.18
2018-09-13T01:14:33.451Z,32.17
2018-09-13T01:17:06.863Z,32.67
2018-09-13T01:19:40.251Z,33.15
2018-09-13T01:22:13.647Z,32.60
2018-09-13T01:24:47.144Z,32.48
2018-09-13T01:27:20.535Z,32.45
2018-09-13T01:29:53.915Z,32.80
2018-09-13T01:32:27.363Z,32.50
2018-09-13T01:35:00.807Z,33.13
2018-09-13T01:37:34.207Z,33.05
2018-09-13T01:40:07.639Z,32.42
2018-09-13T01:42:41.027Z,33.30
2018-09-13T01:45:14.403Z,33.23
2018-09-13T01:47:47.804Z,32.73
2018-09-13T01:50:21.178Z,33.98
2018-09-13T01:52:54.574Z,33.55
2018-09-13T01:55:27.947Z,33.65
2018-09-13T01:58:01.367Z,33.80
2018-09-13T02:00:34.731Z,33.20
2018-09-13T02:03:08.215Z,33.48
2018-09-13T02:05:41.591Z,33.45
2018-09-13T02:08:14.972Z,35.92
2018-09-13T02:10:48.331Z,34.25
2018-09-13T02:13:21.723Z,34.03
2018-09-13T02:15:55.122Z,33.42
2018-09-13T02:18:28.495Z,34.05
2018-09-13T02:21:01.865Z,33.92
2018-09-13T02:23:35.240Z,34.23
2018-09-13T02:26:08.599Z,34.08
2018-09-13T02:28:42.331Z,35.48
2018-09-13T02:31:15.720Z,33.98
2018-09-13T02:33:49.136Z,34.35
2018-09-13T02:36:22.503Z,34.27
2018-09-13T02:38:55.903Z,35.83
2018-09-13T02:41:29.271Z,34.38
2018-09-13T02:44:02.771Z,34.10
2018-09-13T02:46:36.505Z,35.52
2018-09-13T02:49:10.326Z,33.83
2018-09-13T02:51:43.708Z,34.27
2018-09-13T02:54:17.095Z,33.45
2018-09-13T02:56:50.466Z,34.67
2018-09-13T02:59:23.860Z,34.38
2018-09-13T03:01:57.223Z,34.27
2018-09-13T03:04:30.656Z,34.67
2018-09-13T03:07:04.035Z,34.78
2018-09-13T03:09:37.439Z,34.55
2018-09-13T03:12:10.814Z,34.27
2018-09-13T03:14:44.207Z,33.50
2018-09-13T03:17:17.579Z,34.05
2018-09-13T03:19:50.972Z,33.23
2018-09-13T03:22:24.342Z,32.80
2018-09-13T03:24:57.727Z,33.75
2018-09-13T03:27:31.200Z,33.95
2018-09-13T03:30:05.478Z,33.73
2018-09-13T03:32:39.609Z,33.42
2018-09-13T03:35:13.026Z,33.08
2018-09-13T03:37:46.485Z,33.70
2018-09-13T03:40:19.875Z,33.95
2018-09-13T03:42:53.342Z,34.78
2018-09-13T03:45:26.741Z,34.70
2018-09-13T03:48:00.114Z,34.48
2018-09-13T03:50:33.517Z,34.58
2018-09-13T03:53:06.885Z,35.17
2018-09-13T03:55:40.279Z,34.73
2018-09-13T03:58:13.638Z,34.65
2018-09-13T04:00:47.024Z,35.63
2018-09-13T04:03:20.497Z,34.70
2018-09-13T04:05:53.922Z,36.10
2018-09-13T04:08:27.675Z,36.15
2018-09-13T04:11:01.058Z,34.80
2018-09-13T04:13:34.508Z,34.60
2018-09-13T04:16:07.917Z,34.90
2018-09-13T04:18:41.353Z,34.50
2018-09-13T04:21:14.707Z,34.58
2018-09-13T04:23:48.070Z,34.00
2018-09-13T04:26:21.455Z,34.25
2018-09-13T04:28:54.994Z,33.18
2018-09-13T04:31:28.374Z,33.53
2018-09-13T04:34:01.742Z,33.58
2018-09-13T04:36:35.131Z,33.42
2018-09-13T04:39:09.046Z,34.85
2018-09-13T04:41:42.459Z,33.83
2018-09-13T04:44:15.881Z,33.98
2018-09-13T04:46:49.584Z,34.30
2018-09-13T04:49:22.961Z,33.83
2018-09-13T04:51:56.358Z,33.70
2018-09-13T04:54:29.751Z,34.18
2018-09-13T04:57:03.165Z,33.88
2018-09-13T04:59:36.546Z,33.67
2018-09-13T05:02:09.946Z,34.65
2018-09-13T05:04:43.330Z,35.58
2018-09-13T05:07:16.739Z,33.88
2018-09-13T05:09:50.135Z,34.55
2018-09-13T05:12:23.550Z,33.38
2018-09-13T05:14:56.935Z,34.00
2018-09-13T05:17:30.536Z,34.80
2018-09-13T05:20:03.952Z,34.38
2018-09-13T05:22:37.355Z,34.35
2018-09-13T05:25:10.802Z,34.10
2018-09-13T05:27:44.211Z,34.18
2018-09-13T05:30:17.602Z,34.00
2018-09-13T05:32:51.022Z,34.40
2018-09-13T05:35:24.431Z,34.20
2018-09-13T05:37:57.875Z,35.35
2018-09-13T05:40:31.352Z,35.38
2018-09-13T05:43:04.814Z,35.63
2018-09-13T05:45:38.262Z,35.17
2018-09-13T05:48:11.676Z,34.70
2018-09-13T05:50:45.202Z,35.08
2018-09-13T05:53:18.610Z,35.03
2018-09-13T05:55:52.002Z,34.65
2018-09-13T05:58:25.412Z,34.55
2018-09-13T06:00:58.878Z,33.75
2018-09-13T06:03:32.293Z,34.60
2018-09-13T06:06:05.753Z,34.70
2018-09-13T06:08:39.154Z,34.63
2018-09-13T06:11:13.475Z,34.83
2018-09-13T06:13:46.883Z,35.00
2018-09-13T06:16:20.332Z,35.58
2018-09-13T06:18:53.786Z,35.78
2018-09-13T06:21:27.170Z,34.78
2018-09-13T06:24:00.578Z,34.83
2018-09-13T06:26:34.038Z,34.98
2018-09-13T06:29:07.454Z,34.63
2018-09-13T06:31:40.854Z,35.83
2018-09-13T06:34:14.279Z,35.03
2018-09-13T06:36:47.662Z,36.53
2018-09-13T06:39:21.090Z,36.40
2018-09-13T06:41:54.487Z,38.15
2018-09-13T06:44:27.974Z,37.08
2018-09-13T06:47:01.354Z,36.30
2018-09-13T06:49:34.755Z,37.90
2018-09-13T06:52:08.170Z,37.05
2018-09-13T06:54:41.584Z,40.90
2018-09-13T06:57:14.962Z,38.85
2018-09-13T06:59:48.384Z,35.73
2018-09-13T07:02:21.850Z,38.30
2018-09-13T07:04:55.242Z,38.20
2018-09-13T07:07:28.687Z,37.55
2018-09-13T07:10:02.106Z,38.17
2018-09-13T07:12:35.519Z,38.67
2018-09-13T07:15:08.951Z,38.33
2018-09-13T07:17:42.337Z,38.20
2018-09-13T07:20:15.747Z,38.98
2018-09-13T07:22:49.134Z,38.33
2018-09-13T07:25:22.562Z,37.67
2018-09-13T07:27:55.994Z,38.35
2018-09-13T07:30:29.446Z,38.45
2018-09-13T07:33:02.834Z,38.70
2018-09-13T07:35:36.242Z,38.85
2018-09-13T07:38:09.800Z,39.13
2018-09-13T07:40:43.274Z,39.90
2018-09-13T07:43:16.683Z,39.83
2018-09-13T07:45:50.090Z,40.08
2018-09-13T07:48:23.488Z,39.27
2018-09-13T07:50:56.994Z,38.53
2018-09-13T07:53:30.387Z,38.80
2018-09-13T07:56:03.919Z,38.95
2018-09-13T07:58:37.301Z,38.88
2018-09-13T08:01:10.918Z,38.50
2018-09-13T08:03:44.296Z,38.63
2018-09-13T08:06:17.697Z,39.50
2018-09-13T08:08:51.085Z,38.92
2018-09-13T08:11:25.658Z,40.90
2018-09-13T08:13:59.043Z,39.48
2018-09-13T08:16:32.446Z,39.13
2018-09-13T08:19:05.831Z,39.50
2018-09-13T08:21:39.247Z,39.60
2018-09-13T08:24:12.659Z,38.38
2018-09-13T08:26:46.059Z,39.53
2018-09-13T08:29:19.452Z,38.67
2018-09-13T08:31:52.862Z,39.38
2018-09-13T08:34:26.242Z,38.08
2018-09-13T08:36:59.685Z,38.73
2018-09-13T08:39:33.099Z,38.33
2018-09-13T08:42:06.508Z,37.42
2018-09-13T08:44:39.900Z,38.28
2018-09-13T08:47:13.314Z,37.73
2018-09-13T08:49:46.731Z,37.93
2018-09-13T08:52:20.134Z,38.92
2018-09-13T08:54:53.548Z,37.80
2018-09-13T08:57:26.935Z,38.40
2018-09-13T09:00:00.358Z,39.25
2018-09-13T09:02:33.747Z,38.92
2018-09-13T09:05:07.295Z,38.85
2018-09-13T09:07:41.074Z,38.90
2018-09-13T09:10:14.491Z,38.70
2018-09-13T09:12:47.870Z,39.33
2018-09-13T09:15:21.271Z,38.98
2018-09-13T09:17:54.710Z,38.50
2018-09-13T09:20:28.114Z,39.67
2018-09-13T09:23:01.510Z,38.90
2018-09-13T09:25:34.978Z,39.10
2018-09-13T09:28:08.347Z,40.03
2018-09-13T09:30:41.836Z,39.13
2018-09-13T09:33:15.218Z,39.58
2018-09-13T09:35:48.645Z,39.13
2018-09-13T09:38:22.036Z,40.55
2018-09-13T09:40:55.458Z,38.20
2018-09-13T09:43:28.830Z,39.18
2018-09-13T09:46:02.229Z,37.83
2018-09-13T09:48:35.604Z,38.60
2018-09-13T09:51:09.482Z,40.70
2018-09-13T09:53:42.846Z,38.95
2018-09-13T09:56:16.294Z,37.83
2018-09-13T09:58:49.634Z,38.70
2018-09-13T10:02:25.377Z,37.40
2018-09-13T10:04:58.747Z,37.98
2018-09-13T10:07:32.142Z,38.78
2018-09-13T10:10:05.619Z,38.23
2018-09-13T10:12:38.997Z,38.40
2018-09-13T10:15:17.715Z,37.93
2018-09-13T10:17:56.461Z,37.45
2018-09-13T10:20:35.171Z,38.20
2018-09-13T10:23:14.286Z,37.67
2018-09-13T10:25:52.953Z,37.08
2018-09-13T10:28:31.455Z,37.20
2018-09-13T10:31:10.219Z,38.05
2018-09-13T10:33:48.817Z,37.58
2018-09-13T10:36:27.426Z,37.33
2018-09-13T10:39:06.059Z,37.93
2018-09-13T10:41:44.611Z,37.70
2018-09-13T10:44:23.259Z,37.80
2018-09-13T10:47:02.048Z,37.63
2018-09-13T10:49:40.636Z,37.67
2018-09-13T10:52:16.705Z,37.70
2018-09-13T10:54:50.089Z,37.17
2018-09-13T10:57:28.709Z,38.20
2018-09-13T11:00:02.091Z,38.17
2018-09-13T11:02:35.538Z,38.00
2018-09-13T11:05:08.972Z,36.70
2018-09-13T11:07:42.422Z,37.08
2018-09-13T11:10:15.827Z,36.73
2018-09-13T11:12:53.061Z,36.25
2018-09-13T11:15:41.804Z,36.83
2018-09-13T11:18:15.989Z,36.03
2018-09-13T11:20:49.430Z,36.25
2018-09-13T11:23:22.874Z,35.40
2018-09-13T11:25:56.319Z,36.42
2018-09-13T11:28:29.739Z,36.20
2018-09-13T11:31:04.254Z,36.20
2018-09-13T11:33:37.691Z,36.85
2018-09-13T11:36:11.083Z,36.38
2018-09-13T11:38:44.510Z,36.30
2018-09-13T11:41:17.915Z,36.10
2018-09-13T11:43:51.298Z,36.10
2018-09-13T11:46:24.707Z,36.25
2018-09-13T11:48:58.142Z,35.40
2018-09-13T11:51:31.530Z,36.23
2018-09-13T11:54:04.999Z,35.33
2018-09-13T11:56:38.366Z,35.58
2018-09-13T11:59:11.818Z,34.80
2018-09-13T12:01:45.185Z,37.05
2018-09-13T12:04:18.587Z,34.88
2018-09-13T12:06:52.251Z,35.63
2018-09-13T12:09:25.681Z,35.33
2018-09-13T12:11:59.046Z,34.33
2018-09-13T12:14:32.516Z,34.95
2018-09-13T12:17:05.855Z,35.80
2018-09-13T12:19:39.290Z,35.23
2018-09-13T12:22:12.651Z,34.25
2018-09-13T12:24:46.035Z,34.85
2018-09-13T12:27:19.427Z,35.15
2018-09-13T12:29:52.835Z,35.05
2018-09-13T12:32:26.272Z,34.90
2018-09-13T12:34:59.638Z,35.05
2018-09-13T12:37:33.034Z,34.50
2018-09-13T12:40:07.184Z,34.53
2018-09-13T12:42:40.551Z,34.60
2018-09-13T12:45:13.974Z,33.83
2018-09-13T12:47:47.368Z,34.40
2018-09-13T12:50:20.778Z,34.33
2018-09-13T12:52:54.143Z,34.30
2018-09-13T12:55:31.782Z,33.55
2018-09-13T12:58:05.212Z,33.35
2018-09-13T13:00:38.634Z,34.15
2018-09-13T13:03:13.060Z,34.00
2018-09-13T13:05:46.739Z,33.85
2018-09-13T13:08:20.145Z,33.78
2018-09-13T13:10:53.576Z,33.18
2018-09-13T13:13:27.090Z,33.80
2018-09-13T13:16:00.481Z,33.33
2018-09-13T13:18:33.858Z,33.65
2018-09-13T13:21:07.339Z,34.45
2018-09-13T13:23:40.738Z,33.53
2018-09-13T13:26:14.127Z,34.10
2018-09-13T13:32:30.399Z,32.60
2018-09-13T13:35:03.791Z,32.30
2018-09-13T13:37:37.260Z,32.40
2018-09-13T13:40:10.774Z,32.40
2018-09-13T13:42:44.251Z,32.88
2018-09-13T13:45:17.683Z,32.88
2018-09-13T13:47:51.068Z,32.65
2018-09-13T13:50:25.678Z,32.42
2018-09-13T13:52:59.052Z,32.42
2018-09-13T13:55:32.626Z,32.38
2018-09-13T13:58:06.035Z,33.25
2018-09-13T14:00:39.487Z,34.27
2018-09-13T14:03:12.966Z,34.60
2018-09-13T14:05:46.394Z,33.92
2018-09-13T14:08:20.333Z,37.23
2018-09-13T14:11:02.961Z,36.23
2018-09-13T14:13:36.414Z,36.33
2018-09-13T14:16:09.904Z,35.92
2018-09-13T14:19:20.785Z,36.75
2018-09-13T14:49:40.444Z,37.58
2018-09-13T14:52:13.938Z,33.18
2018-09-13T14:54:47.310Z,34.73
2018-09-13T14:57:20.759Z,32.40
2018-09-13T14:59:54.123Z,31.68
2018-09-13T15:02:27.518Z,31.33
2018-09-13T15:05:00.985Z,30.70
2018-09-13T15:07:34.383Z,30.90
2018-09-13T15:10:07.859Z,30.68
2018-09-13T15:12:41.838Z,30.10
2018-09-13T15:15:15.678Z,31.27
2018-09-13T15:17:49.062Z,30.25
2018-09-13T15:20:22.522Z,29.35
2018-09-13T15:22:56.002Z,29.15
2018-09-13T15:25:29.374Z,29.07
2018-09-13T15:28:03.606Z,28.77
2018-09-13T15:30:37.849Z,29.23
2018-09-13T15:33:11.231Z,29.25
2018-09-13T15:35:44.698Z,29.35
2018-09-13T15:38:18.138Z,28.95
2018-09-13T15:40:51.549Z,28.73
2018-09-13T15:43:24.954Z,28.85
2018-09-13T15:45:58.358Z,29.35
2018-09-13T15:48:31.776Z,29.30
2018-09-13T15:51:05.187Z,29.15
2018-09-13T15:53:38.638Z,28.95
2018-09-13T15:56:12.718Z,29.07
2018-09-13T15:58:46.458Z,37.03
2018-09-13T16:01:19.842Z,31.70
2018-09-13T16:03:53.297Z,29.42
2018-09-13T16:06:26.799Z,29.52
2018-09-13T16:09:00.335Z,29.72
2018-09-13T16:11:33.766Z,29.70
2018-09-13T16:14:07.214Z,30.17
2018-09-13T16:16:40.634Z,30.48
2018-09-13T16:19:15.074Z,30.05
2018-09-13T16:21:48.457Z,29.70
2018-09-13T16:24:21.983Z,30.75
2018-09-13T16:26:55.363Z,31.25
2018-09-13T16:29:28.773Z,30.05
2018-09-13T16:32:02.365Z,29.65
2018-09-13T16:34:35.860Z,29.57
2018-09-13T16:37:10.818Z,28.87
2018-09-13T16:39:49.447Z,29.57
2018-09-13T16:42:28.201Z,30.10
2018-09-13T16:45:01.746Z,30.30
2018-09-13T16:47:40.408Z,29.77
2018-09-13T16:50:13.802Z,29.92
2018-09-13T16:52:47.198Z,29.95
2018-09-13T16:55:20.631Z,29.90
2018-09-13T16:57:54.119Z,29.45
2018-09-13T17:00:27.730Z,29.80
2018-09-13T17:03:01.114Z,30.08
2018-09-13T17:05:34.522Z,31.12
2018-09-13T17:08:07.954Z,29.35
2018-09-13T17:10:41.355Z,30.08
2018-09-13T17:13:14.758Z,30.62
2018-09-13T17:15:48.203Z,29.57
2018-09-13T17:18:21.624Z,29.37
2018-09-13T17:20:55.051Z,29.23
2018-09-13T17:23:28.429Z,29.27
2018-09-13T17:26:01.850Z,28.17
2018-09-13T17:28:35.321Z,28.67
2018-09-13T17:31:08.855Z,28.57
2018-09-13T17:33:42.663Z,28.52
2018-09-13T17:36:16.210Z,28.15
2018-09-13T17:38:49.627Z,28.83
2018-09-13T17:41:23.039Z,28.60
2018-09-13T17:43:56.443Z,28.15
2018-09-13T17:46:29.911Z,28.50
2018-09-13T17:49:03.319Z,28.62
2018-09-13T17:51:36.727Z,28.05
2018-09-13T17:54:10.123Z,28.12
2018-09-13T17:56:43.574Z,28.70
2018-09-13T17:59:16.987Z,28.10
2018-09-13T18:01:50.832Z,27.93
2018-09-13T18:04:24.226Z,27.93
2018-09-13T18:06:57.632Z,28.10
2018-09-13T18:09:31.070Z,28.70
2018-09-13T18:12:04.542Z,28.55
2018-09-13T18:14:38.329Z,28.47
2018-09-13T18:17:11.740Z,28.47
2018-09-13T18:19:45.248Z,29.20
2018-09-13T18:22:18.647Z,28.52
2018-09-13T18:24:52.032Z,28.73
2018-09-13T18:27:25.443Z,29.10
2018-09-13T18:29:58.869Z,28.83
2018-09-13T18:32:32.399Z,28.85
2018-09-13T18:35:06.038Z,28.83
2018-09-13T18:44:09.277Z,28.57
2018-09-13T18:46:42.719Z,29.12
2018-09-13T18:49:16.146Z,28.85
2018-09-13T18:51:49.561Z,28.57
2018-09-13T18:54:23.035Z,28.57
2018-09-13T18:56:56.379Z,28.40
2018-09-13T18:59:29.837Z,28.67
2018-09-13T19:02:03.234Z,28.55
2018-09-13T19:04:37.323Z,28.40
2018-09-13T19:07:13.801Z,29.72
2018-09-13T19:09:47.253Z,28.67
2018-09-13T19:12:23.361Z,28.85
2018-09-13T19:14:56.804Z,29.27
2018-09-13T19:17:30.238Z,28.30
2018-09-13T19:20:03.678Z,28.35
2018-09-13T19:22:37.127Z,28.20
2018-09-13T19:25:10.535Z,28.52
2018-09-13T19:27:44.039Z,28.77
2018-09-13T19:30:17.514Z,28.25
2018-09-13T19:32:51.966Z,28.17
2018-09-13T19:35:25.330Z,28.42
2018-09-13T19:37:58.754Z,28.50
2018-09-13T19:40:32.334Z,29.50
2018-09-13T19:43:06.029Z,29.23
2018-09-13T19:45:39.531Z,29.25
2018-09-13T19:48:12.930Z,28.75
2018-09-13T19:50:46.329Z,29.82
2018-09-13T19:53:19.742Z,28.80
2018-09-13T19:55:53.128Z,29.30
2018-09-13T19:58:26.529Z,29.50
2018-09-13T20:01:00.063Z,29.98
2018-09-13T20:03:33.483Z,28.90
2018-09-13T20:06:06.926Z,29.75
2018-09-13T20:08:40.438Z,29.80
2018-09-13T20:11:13.830Z,30.23
2018-09-13T20:13:47.363Z,29.67
2018-09-13T20:16:20.735Z,30.40
2018-09-13T20:18:54.126Z,30.40
2018-09-13T20:21:27.517Z,31.83
2018-09-13T20:24:01.082Z,30.32
2018-09-13T20:26:34.452Z,30.45
2018-09-13T20:29:07.865Z,30.20
2018-09-13T20:31:41.239Z,30.05
2018-09-13T20:34:14.688Z,30.12
2018-09-13T20:36:48.054Z,30.17
2018-09-13T20:39:21.476Z,29.32
2018-09-13T20:41:54.854Z,30.90
2018-09-13T20:44:28.242Z,30.08
2018-09-13T20:47:01.650Z,30.43
2018-09-13T20:49:35.036Z,30.17
2018-09-13T20:52:08.441Z,30.48
2018-09-13T20:54:41.896Z,30.85
2018-09-13T20:57:15.241Z,30.25
2018-09-13T20:59:48.635Z,30.23
2018-09-13T21:02:22.052Z,30.37
2018-09-13T21:04:55.446Z,30.23
2018-09-13T21:07:28.810Z,30.57
2018-09-13T21:10:02.210Z,30.43
2018-09-13T21:12:36.651Z,30.37
2018-09-13T21:15:10.158Z,29.85
2018-09-13T21:17:43.528Z,29.85
2018-09-13T21:20:16.918Z,30.02
2018-09-13T21:22:50.345Z,30.23
2018-09-13T21:25:23.729Z,30.32
2018-09-13T21:27:57.107Z,30.08
2018-09-13T21:30:30.492Z,30.12
2018-09-13T21:33:03.879Z,30.37
2018-09-13T21:35:37.270Z,30.25
2018-09-13T21:38:10.670Z,30.27
2018-09-13T21:40:44.106Z,30.30
2018-09-13T21:43:17.485Z,30.97
2018-09-13T21:45:51.054Z,30.55
2018-09-13T21:48:24.442Z,30.45
2018-09-13T21:50:57.850Z,30.52
2018-09-13T21:53:31.251Z,30.32
2018-09-13T21:56:04.658Z,30.40
2018-09-13T21:58:38.145Z,29.95
2018-09-13T22:01:11.551Z,30.45
2018-09-13T22:03:44.942Z,30.27
2018-09-13T22:06:18.361Z,30.20
2018-09-13T22:08:51.751Z,30.50
2018-09-13T22:11:25.268Z,30.27
2018-09-13T22:13:58.611Z,31.20
2018-09-13T22:16:32.063Z,30.82
2018-09-13T22:19:05.482Z,30.35
2018-09-13T22:21:38.953Z,30.45
2018-09-13T22:24:12.375Z,30.35
2018-09-13T22:26:45.779Z,30.92
2018-09-13T22:29:19.168Z,29.87
2018-09-13T22:31:52.579Z,30.40
2018-09-13T22:34:26.063Z,30.92
2018-09-13T22:36:59.494Z,30.30
2018-09-13T22:39:32.891Z,30.43
2018-09-13T22:42:06.488Z,30.92
2018-09-13T22:44:41.942Z,30.65
2018-09-13T22:47:15.357Z,30.23
2018-09-13T22:49:48.744Z,30.23
2018-09-13T22:52:22.155Z,30.72
2018-09-13T22:54:55.560Z,30.23
2018-09-13T22:57:28.958Z,30.88
2018-09-13T23:00:02.347Z,31.50
2018-09-13T23:02:41.012Z,31.02
2018-09-13T23:05:14.434Z,31.12
2018-09-13T23:07:47.906Z,30.77
2018-09-13T23:10:21.314Z,30.88
2018-09-13T23:12:54.719Z,30.55
2018-09-13T23:15:28.206Z,30.57
2018-09-13T23:18:01.685Z,31.55
2018-09-13T23:20:35.070Z,30.40
2018-09-13T23:23:08.477Z,30.70
2018-09-13T23:25:41.893Z,30.25
2018-09-13T23:28:15.383Z,30.75
2018-09-13T23:30:48.767Z,30.88
2018-09-13T23:33:22.170Z,30.02
2018-09-13T23:35:55.571Z,31.07
2018-09-13T23:38:28.990Z,31.27
2018-09-13T23:41:02.370Z,31.80
2018-09-13T23:43:35.782Z,32.03
2018-09-13T23:46:09.293Z,32.45
2018-09-13T23:48:42.690Z,32.35
2018-09-13T23:51:16.077Z,32.17
2018-09-13T23:53:49.483Z,32.13
2018-09-13T23:56:22.951Z,31.95
2018-09-13T23:58:56.366Z,32.63
